Time;durP1;ratioP1;P1;durP2;ratioP2;P2;SDS_P1;SDS_P2;PMS_P1;PMS_P2;Temp;Humidity;BMP_temperature;BMP_pressure;BME280_temperature;BME280_humidity;BME280_pressure;Samples;Min_cycle;Max_cycle;Signal;HPM_P1;HPM_P2
2023/08/09 00:00:17;;;;;;;2.92;1.13;;;14.30;99.90;;;;;;5004819;28;20183;-96
2023/08/09 00:02:46;;;;;;;3.58;1.23;;;14.30;99.90;;;;;;5005235;28;20210;-94
2023/08/09 00:05:19;;;;;;;3.20;1.10;;;14.20;99.90;;;;;;5022704;28;20195;-94
2023/08/09 00:07:53;;;;;;;3.45;1.13;;;14.30;99.90;;;;;;4988479;28;20211;-96
2023/08/09 00:10:22;;;;;;;3.55;1.00;;;14.30;99.90;;;;;;5001200;28;20210;-95
2023/08/09 00:12:50;;;;;;;2.90;1.17;;;14.30;99.90;;;;;;5003879;28;20176;-94
2023/08/09 00:15:19;;;;;;;1.88;1.00;;;14.30;99.90;;;;;;5001966;28;20231;-95
2023/08/09 00:17:48;;;;;;;2.03;1.10;;;14.30;99.90;;;;;;5004178;28;20215;-93
2023/08/09 00:20:17;;;;;;;2.25;1.10;;;14.30;99.90;;;;;;5001543;28;20190;-94
2023/08/09 00:22:45;;;;;;;3.63;1.25;;;14.30;99.90;;;;;;5002615;28;20235;-95
2023/08/09 00:25:15;;;;;;;2.80;1.08;;;14.30;99.90;;;;;;5001533;28;20208;-94
2023/08/09 00:27:43;;;;;;;2.60;1.33;;;14.30;99.90;;;;;;5002467;28;20238;-96
2023/08/09 00:30:14;;;;;;;2.17;1.27;;;14.30;99.90;;;;;;5001644;28;20168;-95
2023/08/09 00:32:47;;;;;;;2.58;1.10;;;14.30;99.90;;;;;;4986330;28;20176;-93
2023/08/09 00:35:21;;;;;;;4.63;0.98;;;14.30;99.90;;;;;;4984917;28;20211;-93
2023/08/09 00:37:49;;;;;;;3.60;0.88;;;14.30;99.90;;;;;;5002592;28;20176;-95
2023/08/09 00:40:18;;;;;;;2.65;1.05;;;14.20;99.90;;;;;;5005012;28;20194;-93
2023/08/09 00:42:49;;;;;;;2.70;1.08;;;14.20;99.90;;;;;;5004944;28;20179;-96
2023/08/09 00:45:27;;;;;;;2.40;0.93;;;14.20;99.90;;;;;;5004122;28;20203;-95
2023/08/09 00:48:00;;;;;;;2.72;1.10;;;14.20;99.90;;;;;;5004226;28;20207;-95
2023/08/09 00:50:30;;;;;;;1.67;0.80;;;14.20;99.90;;;;;;5001776;28;20184;-95
2023/08/09 00:52:59;;;;;;;2.83;1.05;;;14.20;99.90;;;;;;4986952;28;20210;-93
2023/08/09 00:55:36;;;;;;;1.13;0.75;;;14.20;99.90;;;;;;5004582;28;20195;-93
2023/08/09 00:58:05;;;;;;;1.88;0.90;;;14.20;99.90;;;;;;5003129;28;20167;-94
2023/08/09 01:00:33;;;;;;;1.25;0.82;;;14.20;99.90;;;;;;4986004;28;20190;-95
2023/08/09 01:03:02;;;;;;;2.40;0.88;;;14.20;99.90;;;;;;5003669;28;20198;-93
2023/08/09 01:05:52;;;;;;;2.30;1.10;;;14.20;99.90;;;;;;5004471;28;20210;-94
2023/08/09 01:08:30;;;;;;;1.35;0.85;;;14.10;99.90;;;;;;5004242;28;20282;-96
2023/08/09 01:11:08;;;;;;;2.22;1.00;;;14.10;99.90;;;;;;5003535;28;20238;-94
2023/08/09 01:13:39;;;;;;;2.00;0.93;;;14.00;99.90;;;;;;5004180;28;20635;-93
2023/08/09 01:16:10;;;;;;;2.00;1.00;;;14.00;99.90;;;;;;5003379;28;20199;-94
2023/08/09 01:18:44;;;;;;;2.58;1.30;;;14.00;99.90;;;;;;5002928;28;20188;-96
2023/08/09 01:21:15;;;;;;;2.33;1.20;;;14.00;99.90;;;;;;4988112;28;20179;-94
2023/08/09 01:23:50;;;;;;;3.72;1.00;;;13.90;99.90;;;;;;5021048;28;20156;-95
2023/08/09 01:26:19;;;;;;;1.02;0.90;;;14.00;99.90;;;;;;5002095;28;20614;-96
2023/08/09 01:28:53;;;;;;;2.67;1.10;;;14.00;99.90;;;;;;5001823;28;20655;-94
2023/08/09 01:31:27;;;;;;;2.13;1.05;;;14.00;99.90;;;;;;5020566;28;20183;-93
2023/08/09 01:33:57;;;;;;;2.15;1.08;;;14.00;99.90;;;;;;5002132;28;20631;-94
2023/08/09 01:36:30;;;;;;;2.78;1.10;;;13.90;99.90;;;;;;4984968;28;20611;-94
2023/08/09 01:39:12;;;;;;;2.08;1.15;;;13.90;99.90;;;;;;5002257;28;20234;-94
2023/08/09 01:41:47;;;;;;;2.55;1.08;;;14.00;99.90;;;;;;5000154;28;20750;-94
2023/08/09 01:44:19;;;;;;;2.90;1.35;;;13.90;99.90;;;;;;5016621;28;20187;-94
2023/08/09 01:46:51;;;;;;;3.38;0.90;;;13.90;99.90;;;;;;5000723;28;20207;-95
2023/08/09 01:49:24;;;;;;;3.42;1.15;;;13.90;99.90;;;;;;4997749;28;20184;-94
2023/08/09 01:51:56;;;;;;;2.45;1.23;;;13.90;99.90;;;;;;5002191;28;20207;-95
2023/08/09 01:54:24;;;;;;;1.20;1.10;;;13.80;99.90;;;;;;4998793;28;20184;-94
2023/08/09 01:56:56;;;;;;;5.32;1.33;;;13.80;99.90;;;;;;5001900;28;20204;-93
2023/08/09 01:59:26;;;;;;;1.58;1.13;;;13.80;99.90;;;;;;4998538;28;20219;-93
2023/08/09 02:01:57;;;;;;;1.70;0.95;;;13.70;99.90;;;;;;5001976;28;20179;-93
2023/08/09 02:04:25;;;;;;;1.88;1.10;;;13.70;99.90;;;;;;4998129;28;20214;-94
2023/08/09 02:06:56;;;;;;;1.20;1.10;;;13.70;99.90;;;;;;5001727;28;20766;-93
2023/08/09 02:09:26;;;;;;;1.98;1.20;;;13.70;99.90;;;;;;5000311;28;20192;-94
2023/08/09 02:11:56;;;;;;;1.65;1.30;;;13.70;99.90;;;;;;5002264;28;20178;-94
2023/08/09 02:14:24;;;;;;;2.60;1.20;;;13.70;99.90;;;;;;4998546;28;20176;-94
2023/08/09 02:16:52;;;;;;;2.75;1.00;;;13.70;99.90;;;;;;5000757;28;20206;-93
2023/08/09 02:19:19;;;;;;;2.20;1.27;;;13.60;99.90;;;;;;5396442;23;20325;-89
2023/08/09 02:21:45;;;;;;;1.80;1.00;;;13.60;99.90;;;;;;5018021;28;20205;-90
2023/08/09 02:24:11;;;;;;;1.88;1.00;;;13.60;99.90;;;;;;5018247;28;20179;-89
2023/08/09 02:26:39;;;;;;;1.88;1.33;;;13.60;99.90;;;;;;5017972;28;20348;-90
2023/08/09 02:29:05;;;;;;;1.70;1.08;;;13.60;99.90;;;;;;5035708;28;20197;-90
2023/08/09 02:31:31;;;;;;;1.60;0.90;;;13.50;99.90;;;;;;5035588;28;20633;-89
2023/08/09 02:33:57;;;;;;;3.13;1.42;;;13.40;99.90;;;;;;5017550;28;20201;-90
2023/08/09 02:36:24;;;;;;;3.53;1.38;;;13.40;99.90;;;;;;5017740;28;20182;-90
2023/08/09 02:38:50;;;;;;;3.35;1.33;;;13.40;99.90;;;;;;5018067;28;20177;-91
2023/08/09 02:41:19;;;;;;;1.80;1.30;;;13.30;99.90;;;;;;5017617;28;20182;-90
2023/08/09 02:43:45;;;;;;;3.10;1.00;;;13.30;99.90;;;;;;5018006;28;20186;-90
2023/08/09 02:46:12;;;;;;;2.05;1.17;;;13.30;99.90;;;;;;5017650;28;20186;-90
2023/08/09 02:48:40;;;;;;;2.33;1.20;;;13.20;99.90;;;;;;5017758;28;20213;-89
2023/08/09 02:51:17;;;;;;;2.33;1.27;;;13.20;99.90;;;;;;4991119;28;20179;-90
2023/08/09 02:54:10;;;;;;;4.10;1.35;;;13.10;99.90;;;;;;4998329;28;20175;-91
2023/08/09 02:56:36;;;;;;;1.80;1.20;;;13.10;99.90;;;;;;4996018;28;20222;-91
2023/08/09 02:59:02;;;;;;;4.22;1.40;;;13.00;99.90;;;;;;4998096;28;20182;-91
2023/08/09 03:01:29;;;;;;;1.75;1.17;;;12.90;99.90;;;;;;4997470;28;20665;-91
2023/08/09 03:03:55;;;;;;;1.30;1.15;;;12.90;99.90;;;;;;4997255;28;20214;-91
2023/08/09 03:06:22;;;;;;;6.30;1.60;;;12.90;99.90;;;;;;4997746;28;20176;-91
2023/08/09 03:08:49;;;;;;;3.78;1.20;;;12.80;99.90;;;;;;4997857;28;20193;-90
2023/08/09 03:11:18;;;;;;;2.45;1.30;;;12.80;99.90;;;;;;4997949;28;20190;-91
2023/08/09 03:13:44;;;;;;;2.28;1.10;;;12.80;99.90;;;;;;4997835;28;20266;-91
2023/08/09 03:16:10;;;;;;;2.35;1.00;;;12.80;99.90;;;;;;4998049;28;20210;-91
2023/08/09 03:18:36;;;;;;;6.68;1.50;;;12.70;99.90;;;;;;4997769;28;20637;-91
2023/08/09 03:21:03;;;;;;;3.25;1.60;;;12.70;99.90;;;;;;4998688;28;20220;-90
2023/08/09 03:23:29;;;;;;;1.92;1.10;;;12.70;99.90;;;;;;5002185;28;20179;-90
2023/08/09 03:25:55;;;;;;;2.65;1.40;;;12.60;99.90;;;;;;5001920;28;20181;-91
2023/08/09 03:28:21;;;;;;;2.45;1.33;;;12.60;99.90;;;;;;5001789;28;20217;-91
2023/08/09 03:30:51;;;;;;;1.30;1.20;;;12.60;99.90;;;;;;5018008;28;20186;-91
2023/08/09 03:33:18;;;;;;;2.72;1.40;;;12.50;99.90;;;;;;5001623;28;20563;-91
2023/08/09 03:35:44;;;;;;;6.30;1.50;;;12.60;99.90;;;;;;5001235;28;20183;-91
2023/08/09 03:38:10;;;;;;;2.75;1.38;;;12.50;99.90;;;;;;5001761;28;20264;-91
2023/08/09 03:40:39;;;;;;;2.22;1.33;;;12.50;99.90;;;;;;5018680;28;20175;-91
2023/08/09 03:43:05;;;;;;;1.98;1.35;;;12.50;99.90;;;;;;5001640;28;20613;-91
2023/08/09 03:45:31;;;;;;;2.28;1.30;;;12.50;99.90;;;;;;5001346;28;20183;-91
2023/08/09 03:47:58;;;;;;;2.65;1.40;;;12.40;99.90;;;;;;4998156;28;20696;-91
2023/08/09 03:50:23;;;;;;;4.68;1.58;;;12.40;99.90;;;;;;4996414;28;20206;-91
2023/08/09 03:52:49;;;;;;;2.10;1.30;;;12.40;99.90;;;;;;5018663;28;20179;-90
2023/08/09 03:55:15;;;;;;;3.53;1.30;;;12.30;99.90;;;;;;5017896;28;20633;-91
2023/08/09 03:57:41;;;;;;;1.80;1.30;;;12.40;99.90;;;;;;5018828;28;20179;-91
2023/08/09 04:00:13;;;;;;;6.03;1.60;;;12.40;99.90;;;;;;5017663;28;20183;-91
2023/08/09 04:02:49;;;;;;;2.65;1.60;;;12.30;99.90;;;;;;5018685;28;20534;-90
2023/08/09 04:05:19;;;;;;;3.15;1.40;;;12.40;99.90;;;;;;5000889;28;20179;-91
2023/08/09 04:07:45;;;;;;;4.03;1.50;;;12.30;99.90;;;;;;5000935;28;20677;-90
2023/08/09 04:10:12;;;;;;;3.95;1.40;;;12.30;99.90;;;;;;5000906;28;20245;-90
2023/08/09 04:12:39;;;;;;;2.45;1.45;;;12.30;99.90;;;;;;5001049;28;20206;-91
2023/08/09 04:15:06;;;;;;;1.85;1.15;;;12.30;99.90;;;;;;5000886;28;20186;-90
2023/08/09 04:17:32;;;;;;;2.25;1.48;;;12.30;99.90;;;;;;5000890;28;20186;-90
2023/08/09 04:19:59;;;;;;;2.08;1.48;;;12.30;99.90;;;;;;5014718;28;20322;-90
2023/08/09 04:22:25;;;;;;;2.03;1.20;;;12.30;99.90;;;;;;5000466;28;20190;-92
2023/08/09 04:24:50;;;;;;;2.13;1.60;;;12.40;99.90;;;;;;5000753;28;20175;-92
2023/08/09 04:27:16;;;;;;;2.13;1.30;;;12.40;99.90;;;;;;5000363;28;20298;-93
2023/08/09 04:29:42;;;;;;;1.48;1.25;;;12.40;99.90;;;;;;5000357;28;20175;-95
2023/08/09 04:32:09;;;;;;;3.75;1.40;;;12.40;99.90;;;;;;5000257;28;20622;-92
2023/08/09 04:34:35;;;;;;;4.25;1.55;;;12.50;99.90;;;;;;5000278;28;20179;-91
2023/08/09 04:37:00;;;;;;;5.93;1.50;;;12.50;99.90;;;;;;5000716;28;20241;-91
2023/08/09 04:39:26;;;;;;;5.07;1.80;;;12.60;99.90;;;;;;5000271;28;20345;-90
2023/08/09 04:41:59;;;;;;;4.30;1.77;;;12.60;99.90;;;;;;5000333;28;20203;-90
2023/08/09 04:44:25;;;;;;;2.45;1.25;;;12.60;99.90;;;;;;5000478;28;20176;-90
2023/08/09 04:46:50;;;;;;;5.25;1.60;;;12.70;99.90;;;;;;5000353;28;20215;-91
2023/08/09 04:49:16;;;;;;;3.55;1.70;;;12.70;99.90;;;;;;4997375;28;20964;-91
2023/08/09 04:51:43;;;;;;;2.78;1.63;;;12.80;99.90;;;;;;4980843;28;20175;-92
2023/08/09 04:54:11;;;;;;;6.22;1.88;;;12.80;99.90;;;;;;4980485;28;20215;-92
2023/08/09 04:56:37;;;;;;;2.85;2.00;;;12.90;99.90;;;;;;4980709;28;20176;-91
2023/08/09 04:59:03;;;;;;;3.03;1.83;;;12.90;99.90;;;;;;4980683;28;20195;-90
2023/08/09 05:01:30;;;;;;;4.15;1.90;;;12.90;99.90;;;;;;4980813;28;20187;-90
2023/08/09 05:03:56;;;;;;;3.22;1.70;;;13.00;99.90;;;;;;4980355;28;20180;-90
2023/08/09 05:06:22;;;;;;;5.95;2.10;;;13.00;99.90;;;;;;4980264;28;20191;-90
2023/08/09 05:08:48;;;;;;;2.78;1.95;;;13.10;99.90;;;;;;4980580;28;20228;-90
2023/08/09 05:11:14;;;;;;;5.78;2.15;;;13.10;99.90;;;;;;4980278;28;20619;-90
2023/08/09 05:13:39;;;;;;;3.70;2.08;;;13.10;99.90;;;;;;4980357;28;20235;-90
2023/08/09 05:16:05;;;;;;;4.75;2.10;;;13.10;99.90;;;;;;4980608;28;20191;-90
2023/08/09 05:18:31;;;;;;;3.30;2.20;;;13.20;99.90;;;;;;4997739;28;20199;-88
2023/08/09 05:20:58;;;;;;;3.03;2.05;;;13.20;99.90;;;;;;5013978;28;20234;-91
2023/08/09 05:23:25;;;;;;;2.90;2.00;;;13.20;99.90;;;;;;5016040;28;20676;-90
2023/08/09 05:25:51;;;;;;;6.45;2.47;;;13.10;99.90;;;;;;5018515;28;20210;-91
2023/08/09 05:28:17;;;;;;;4.97;2.17;;;13.20;99.90;;;;;;5019012;28;20265;-91
2023/08/09 05:30:43;;;;;;;3.85;2.00;;;13.20;99.90;;;;;;5019087;28;20182;-91
2023/08/09 05:33:19;;;;;;;5.75;2.30;;;13.20;99.90;;;;;;5019071;28;20185;-91
2023/08/09 05:35:44;;;;;;;4.63;2.08;;;13.20;99.90;;;;;;5019039;28;20170;-90
2023/08/09 05:38:10;;;;;;;3.25;1.77;;;13.20;99.90;;;;;;5019092;28;20185;-91
2023/08/09 05:40:36;;;;;;;3.30;2.08;;;13.20;99.90;;;;;;5018731;28;20613;-90
2023/08/09 05:43:11;;;;;;;6.50;2.50;;;13.20;99.90;;;;;;5018660;28;20565;-90
2023/08/09 05:45:37;;;;;;;4.43;2.40;;;13.20;99.90;;;;;;5018441;28;20182;-91
2023/08/09 05:48:04;;;;;;;3.58;2.10;;;13.20;99.90;;;;;;5018769;28;20214;-91
2023/08/09 05:50:30;;;;;;;21.65;3.45;;;13.20;99.90;;;;;;5003727;28;20210;-91
2023/08/09 05:53:04;;;;;;;7.38;2.55;;;13.20;99.90;;;;;;4999028;28;20609;-91
2023/08/09 05:55:29;;;;;;;7.95;2.53;;;13.20;99.90;;;;;;4999115;28;20182;-91
2023/08/09 05:57:56;;;;;;;4.35;2.40;;;13.30;99.90;;;;;;5016285;28;20171;-91
2023/08/09 06:00:23;;;;;;;4.88;2.42;;;13.30;99.90;;;;;;4999098;28;20186;-89
2023/08/09 06:03:07;;;;;;;6.05;2.45;;;13.40;99.90;;;;;;4998826;28;20180;-89
2023/08/09 06:05:33;;;;;;;5.80;2.50;;;13.40;99.90;;;;;;4998401;28;20511;-89
2023/08/09 06:07:59;;;;;;;4.45;2.50;;;13.50;99.90;;;;;;4998670;28;20214;-89
2023/08/09 06:10:25;;;;;;;4.43;2.40;;;13.50;99.90;;;;;;4998911;28;20181;-89
2023/08/09 06:12:59;;;;;;;4.30;2.22;;;13.60;99.90;;;;;;4998424;28;20183;-89
2023/08/09 06:15:25;;;;;;;6.55;2.67;;;13.70;99.90;;;;;;4998479;28;20206;-89
2023/08/09 06:17:51;;;;;;;6.60;2.42;;;13.70;99.90;;;;;;4998480;28;20175;-90
2023/08/09 06:20:21;;;;;;;8.55;3.08;;;13.70;99.90;;;;;;5011336;28;20624;-90
2023/08/09 06:22:53;;;;;;;5.60;2.63;;;13.70;99.90;;;;;;5035959;28;20593;-90
2023/08/09 06:25:19;;;;;;;3.75;2.03;;;13.70;99.90;;;;;;5018083;28;20274;-90
2023/08/09 06:27:45;;;;;;;4.88;2.60;;;13.70;99.90;;;;;;5018076;28;20203;-90
2023/08/09 06:30:11;;;;;;;4.45;2.42;;;13.80;99.90;;;;;;5018192;28;20175;-90
2023/08/09 06:32:38;;;;;;;6.40;2.30;;;13.90;99.90;;;;;;5017933;28;20517;-90
2023/08/09 06:35:04;;;;;;;5.35;2.60;;;14.10;99.90;;;;;;5018084;28;20199;-90
2023/08/09 06:37:30;;;;;;;2.65;1.98;;;14.20;99.90;;;;;;5017950;28;20182;-90
2023/08/09 06:39:56;;;;;;;4.35;2.40;;;14.40;99.90;;;;;;5017927;28;20178;-91
2023/08/09 06:42:22;;;;;;;8.23;2.35;;;14.50;99.90;;;;;;5017940;28;20182;-89
2023/08/09 06:44:48;;;;;;;4.43;2.33;;;14.70;99.90;;;;;;5017913;28;20713;-88
2023/08/09 06:47:13;;;;;;;5.05;2.40;;;14.90;99.90;;;;;;5017536;28;20640;-90
2023/08/09 06:49:39;;;;;;;4.95;2.35;;;15.00;99.90;;;;;;5017291;28;20174;-91
2023/08/09 06:52:05;;;;;;;5.20;1.75;;;15.10;99.90;;;;;;5017522;28;20186;-90
2023/08/09 06:54:34;;;;;;;8.63;2.00;;;15.20;99.90;;;;;;5017576;28;20632;-89
2023/08/09 06:57:00;;;;;;;7.55;2.10;;;15.40;99.90;;;;;;5017837;28;20206;-90
2023/08/09 06:59:26;;;;;;;5.63;2.20;;;15.50;99.90;;;;;;5017916;28;20236;-90
2023/08/09 07:01:51;;;;;;;3.63;1.63;;;15.60;99.90;;;;;;5017064;28;20252;-89
2023/08/09 07:04:19;;;;;;;6.25;2.00;;;15.70;99.90;;;;;;5036578;28;20609;-90
2023/08/09 07:06:45;;;;;;;6.68;1.80;;;15.80;99.90;;;;;;5036507;28;20300;-91
2023/08/09 07:09:12;;;;;;;3.30;1.83;;;15.90;99.90;;;;;;5036631;28;20276;-88
2023/08/09 07:11:38;;;;;;;6.20;1.70;;;16.10;99.90;;;;;;5037135;28;20173;-90
2023/08/09 07:14:03;;;;;;;4.10;1.65;;;16.00;99.90;;;;;;5036952;28;20273;-91
2023/08/09 07:16:29;;;;;;;7.35;2.05;;;16.10;99.90;;;;;;5036844;28;20173;-89
2023/08/09 07:18:55;;;;;;;4.43;1.45;;;16.10;99.90;;;;;;5034473;28;20185;-90
2023/08/09 07:21:21;;;;;;;2.75;1.65;;;16.10;99.90;;;;;;5034851;28;20221;-92
2023/08/09 07:23:48;;;;;;;5.18;1.70;;;16.20;99.90;;;;;;5035170;28;20240;-91
2023/08/09 07:26:13;;;;;;;5.85;1.58;;;16.20;99.90;;;;;;5017110;28;20175;-90
2023/08/09 07:28:39;;;;;;;2.38;1.25;;;16.20;99.90;;;;;;5016769;28;20205;-90
2023/08/09 07:31:17;;;;;;;4.85;1.65;;;16.10;99.90;;;;;;5016554;28;20493;-89
2023/08/09 07:33:43;;;;;;;2.85;1.33;;;16.20;99.90;;;;;;5017437;28;20206;-89
2023/08/09 07:36:08;;;;;;;4.95;1.30;;;16.20;99.90;;;;;;5034697;28;20617;-90
2023/08/09 07:38:36;;;;;;;5.38;1.60;;;16.30;99.90;;;;;;5017327;28;20560;-92
2023/08/09 07:41:03;;;;;;;2.92;1.40;;;16.40;99.90;;;;;;5034909;28;20175;-90
2023/08/09 07:43:37;;;;;;;4.97;1.70;;;16.40;99.90;;;;;;5017116;28;20182;-89
2023/08/09 07:46:07;;;;;;;4.50;1.48;;;16.60;99.90;;;;;;5017341;28;20206;-89
2023/08/09 07:48:33;;;;;;;3.33;0.88;;;16.70;99.90;;;;;;5017298;28;20225;-90
2023/08/09 07:50:59;;;;;;;3.05;1.25;;;16.80;99.90;;;;;;4998142;28;20283;-90
2023/08/09 07:53:32;;;;;;;7.63;1.20;;;17.10;99.90;;;;;;5015218;28;20602;-89
2023/08/09 07:55:58;;;;;;;5.10;1.52;;;17.20;99.90;;;;;;5015214;28;20649;-90
2023/08/09 07:58:24;;;;;;;7.45;1.40;;;17.30;99.90;;;;;;4997798;28;20222;-90
2023/08/09 08:00:49;;;;;;;13.85;1.70;;;17.30;99.90;;;;;;4997478;28;20183;-91
2023/08/09 08:03:15;;;;;;;7.32;1.60;;;17.40;99.90;;;;;;4997433;28;20191;-91
2023/08/09 08:05:52;;;;;;;5.35;1.20;;;17.40;99.90;;;;;;4997079;28;20171;-91
2023/08/09 08:08:18;;;;;;;5.25;1.30;;;17.40;99.90;;;;;;5000048;28;20217;-90
2023/08/09 08:10:44;;;;;;;7.50;1.23;;;17.50;99.90;;;;;;5018592;28;20179;-89
2023/08/09 08:13:11;;;;;;;6.72;1.20;;;17.60;99.90;;;;;;5000945;28;20183;-89
2023/08/09 08:15:38;;;;;;;3.97;1.05;;;17.70;99.90;;;;;;5000856;28;20175;-90
2023/08/09 08:18:04;;;;;;;4.15;1.20;;;17.90;99.90;;;;;;5000812;28;20294;-91
2023/08/09 08:20:30;;;;;;;5.45;1.20;;;17.80;99.90;;;;;;5015605;28;20289;-91
2023/08/09 08:22:56;;;;;;;3.22;1.20;;;17.90;99.90;;;;;;5038074;28;20197;-90
2023/08/09 08:25:23;;;;;;;4.93;1.23;;;17.90;99.90;;;;;;5020721;28;20680;-92
2023/08/09 08:27:49;;;;;;;5.93;1.00;;;18.00;99.90;;;;;;5020426;28;20542;-90
2023/08/09 08:30:17;;;;;;;5.90;0.95;;;18.10;99.90;;;;;;5019809;28;20179;-89
2023/08/09 08:32:47;;;;;;;8.68;1.15;;;18.10;99.90;;;;;;5019736;28;20174;-90
2023/08/09 08:35:14;;;;;;;2.80;0.90;;;18.20;99.90;;;;;;5019533;28;20163;-90
2023/08/09 08:37:41;;;;;;;4.90;1.05;;;18.30;99.90;;;;;;5037922;28;20175;-89
2023/08/09 08:40:17;;;;;;;5.05;1.00;;;18.30;99.90;;;;;;5019987;28;20181;-89
2023/08/09 08:42:47;;;;;;;3.13;1.27;;;18.30;99.90;;;;;;5020242;28;20170;-89
2023/08/09 08:45:15;;;;;;;3.80;1.00;;;18.20;99.90;;;;;;5037713;28;20221;-89
2023/08/09 08:47:44;;;;;;;7.82;1.23;;;18.10;99.90;;;;;;5020061;28;20225;-91
2023/08/09 08:50:11;;;;;;;6.63;1.13;;;18.20;99.90;;;;;;5024933;28;20175;-88
2023/08/09 08:52:40;;;;;;;5.88;1.30;;;18.20;99.90;;;;;;5000411;28;20176;-87
2023/08/09 08:55:16;;;;;;;3.88;0.93;;;17.90;99.90;;;;;;5000055;28;20610;-91
2023/08/09 08:57:43;;;;;;;6.65;1.10;;;17.70;99.90;;;;;;5017769;28;20162;-90
2023/08/09 09:00:16;;;;;;;5.43;1.02;;;17.50;99.90;;;;;;5000258;28;20217;-90
2023/08/09 09:02:46;;;;;;;3.83;1.35;;;17.40;99.90;;;;;;5000509;28;20179;-90
2023/08/09 09:05:16;;;;;;;3.45;1.00;;;17.50;99.90;;;;;;4999782;28;20186;-89
2023/08/09 09:07:45;;;;;;;3.20;1.00;;;17.70;99.90;;;;;;5017169;28;20218;-90
2023/08/09 09:10:15;;;;;;;5.15;1.00;;;18.00;99.90;;;;;;5008198;28;20635;-90
2023/08/09 09:12:41;;;;;;;6.18;1.30;;;17.90;99.90;;;;;;4999798;28;20610;-90
2023/08/09 09:15:10;;;;;;;8.75;1.30;;;17.80;99.90;;;;;;4999722;28;20179;-88
2023/08/09 09:17:40;;;;;;;3.08;0.90;;;17.70;99.90;;;;;;5017202;28;20171;-89
2023/08/09 09:20:10;;;;;;;3.50;1.10;;;17.60;99.90;;;;;;4998187;28;20223;-90
2023/08/09 09:22:37;;;;;;;2.05;0.88;;;17.40;99.90;;;;;;4999706;28;20500;-91
2023/08/09 09:25:10;;;;;;;7.72;1.08;;;17.20;99.90;;;;;;5016099;28;20266;-90
2023/08/09 09:27:37;;;;;;;4.80;1.23;;;17.10;99.90;;;;;;5017096;28;20204;-90
2023/08/09 09:30:13;;;;;;;3.40;0.90;;;17.10;99.90;;;;;;5016837;28;20171;-90
2023/08/09 09:32:56;;;;;;;5.40;1.23;;;16.90;99.90;;;;;;4999407;28;20179;-89
2023/08/09 09:35:28;;;;;;;3.78;1.02;;;16.80;99.90;;;;;;4999349;28;20172;-90
2023/08/09 09:37:55;;;;;;;5.93;1.00;;;17.00;99.90;;;;;;5015772;28;20168;-90
2023/08/09 09:40:34;;;;;;;5.40;1.27;;;17.30;99.90;;;;;;5016440;28;20202;-90
2023/08/09 09:43:01;;;;;;;5.78;1.27;;;17.70;99.90;;;;;;4999241;28;20201;-91
2023/08/09 09:45:31;;;;;;;2.33;0.90;;;18.00;99.90;;;;;;4999019;28;20183;-90
2023/08/09 09:47:58;;;;;;;1.73;0.75;;;18.30;99.90;;;;;;4998808;28;20221;-90
2023/08/09 09:50:27;;;;;;;5.30;0.98;;;18.50;99.90;;;;;;5023692;28;20182;-89
2023/08/09 09:52:54;;;;;;;5.97;1.50;;;18.70;99.90;;;;;;5018484;28;20593;-91
2023/08/09 09:55:25;;;;;;;3.60;0.98;;;19.00;99.90;;;;;;5036180;28;20220;-90
2023/08/09 09:57:54;;;;;;;5.25;0.90;;;19.00;99.90;;;;;;5036176;28;20159;-89
2023/08/09 10:00:22;;;;;;;2.72;0.70;;;19.00;99.90;;;;;;5018516;28;20170;-89
2023/08/09 10:02:52;;;;;;;4.13;1.15;;;18.80;99.90;;;;;;5018613;28;20580;-90
2023/08/09 10:05:37;;;;;;;3.10;0.98;;;18.70;99.90;;;;;;5035955;28;20163;-90
2023/08/09 10:08:08;;;;;;;2.53;0.85;;;18.80;99.90;;;;;;5035967;28;20679;-88
2023/08/09 10:10:36;;;;;;;4.43;1.00;;;19.10;99.90;;;;;;5018689;28;20175;-91
2023/08/09 10:13:04;;;;;;;4.75;1.13;;;19.10;99.90;;;;;;5018533;28;20206;-91
2023/08/09 10:15:40;;;;;;;4.32;0.80;;;19.30;99.90;;;;;;5018466;28;20175;-89
2023/08/09 10:18:23;;;;;;;5.93;0.90;;;19.20;99.90;;;;;;5018389;28;20177;-88
2023/08/09 10:20:51;;;;;;;4.70;1.33;;;19.00;99.90;;;;;;5017636;28;20234;-89
2023/08/09 10:23:22;;;;;;;4.78;1.40;;;18.60;99.90;;;;;;5018195;28;20717;-91
2023/08/09 10:25:50;;;;;;;2.95;0.90;;;18.30;99.90;;;;;;5018242;28;20221;-92
2023/08/09 10:28:17;;;;;;;3.45;0.75;;;18.10;99.90;;;;;;5018198;28;20210;-89
2023/08/09 10:30:52;;;;;;;3.13;0.90;;;18.10;99.90;;;;;;5017737;28;20178;-93
2023/08/09 10:33:19;;;;;;;3.78;1.00;;;18.30;99.90;;;;;;5018163;28;20181;-91
2023/08/09 10:35:55;;;;;;;5.15;1.33;;;18.70;99.90;;;;;;5035363;28;20162;-89
2023/08/09 10:38:30;;;;;;;3.47;0.85;;;19.10;99.90;;;;;;5018051;28;20201;-88
2023/08/09 10:40:56;;;;;;;2.65;0.80;;;19.40;99.90;;;;;;5017838;28;20624;-89
2023/08/09 10:43:25;;;;;;;4.55;1.27;;;19.80;99.90;;;;;;5018013;28;20179;-90
2023/08/09 10:45:53;;;;;;;4.28;0.80;;;19.80;99.90;;;;;;5018120;28;20285;-89
2023/08/09 10:48:29;;;;;;;2.10;0.90;;;19.80;99.90;;;;;;5017767;28;20242;-88
2023/08/09 10:51:13;;;;;;;3.15;0.70;;;19.90;99.90;;;;;;4999178;28;20204;-89
2023/08/09 10:54:05;;;;;;;0.98;0.68;;;19.70;99.90;;;;;;5014229;28;20179;-91
2023/08/09 10:56:46;;;;;;;2.67;0.63;;;19.40;99.90;;;;;;4998238;28;20167;-89
2023/08/09 10:59:27;;;;;;;7.32;1.30;;;19.10;99.90;;;;;;4997513;28;20175;-89
2023/08/09 11:01:54;;;;;;;3.72;0.80;;;18.90;99.90;;;;;;5004154;28;20297;-89
2023/08/09 11:04:20;;;;;;;3.42;0.88;;;18.80;99.90;;;;;;5016897;28;20202;-88
2023/08/09 11:06:50;;;;;;;3.38;0.88;;;18.90;99.90;;;;;;5034581;28;20202;-86
2023/08/09 11:09:17;;;;;;;5.60;1.02;;;18.80;99.90;;;;;;5017893;28;20193;-90
2023/08/09 11:11:45;;;;;;;3.80;1.10;;;18.90;99.90;;;;;;5017366;28;20201;-89
2023/08/09 11:14:13;;;;;;;5.65;1.20;;;19.20;99.90;;;;;;5017494;28;20186;-89
2023/08/09 11:16:41;;;;;;;5.43;0.75;;;19.60;99.90;;;;;;5035170;28;20205;-91
2023/08/09 11:19:18;;;;;;;4.13;0.85;;;19.80;99.90;;;;;;5017127;28;20662;-88
2023/08/09 11:21:52;;;;;;;5.70;1.20;;;20.00;99.90;;;;;;5016943;28;20175;-90
2023/08/09 11:24:22;;;;;;;6.25;1.23;;;20.00;99.90;;;;;;5016911;28;20232;-91
2023/08/09 11:26:59;;;;;;;7.68;0.90;;;20.20;99.90;;;;;;5017059;28;20289;-91
2023/08/09 11:29:27;;;;;;;2.28;0.77;;;20.30;99.90;;;;;;5016931;28;20178;-90
2023/08/09 11:31:55;;;;;;;2.67;0.80;;;20.30;99.90;;;;;;5017086;28;20217;-89
2023/08/09 11:34:23;;;;;;;10.13;1.40;;;20.50;99.90;;;;;;5016997;28;20210;-88
2023/08/09 11:36:51;;;;;;;2.53;0.73;;;20.50;99.90;;;;;;5017114;28;20206;-86
2023/08/09 11:39:17;;;;;;;6.95;1.00;;;20.50;99.90;;;;;;5017144;28;20171;-87
2023/08/09 11:41:54;;;;;;;3.08;0.88;;;20.40;99.90;;;;;;5017620;28;20171;-85
2023/08/09 11:44:31;;;;;;;3.10;0.77;;;20.00;99.90;;;;;;5038788;28;20162;-86
2023/08/09 11:47:08;;;;;;;1.92;0.70;;;19.80;99.90;;;;;;5021255;28;20204;-87
2023/08/09 11:49:34;;;;;;;1.83;0.60;;;19.80;99.90;;;;;;5021082;28;20205;-88
2023/08/09 11:52:01;;;;;;;4.13;0.80;;;20.10;99.90;;;;;;5020802;28;20221;-89
2023/08/09 11:54:28;;;;;;;3.67;0.80;;;20.50;99.90;;;;;;5020898;28;20185;-89
2023/08/09 11:57:07;;;;;;;4.80;0.93;;;20.70;99.80;;;;;;5038663;28;20240;-89
2023/08/09 11:59:32;;;;;;;4.10;0.85;;;20.40;99.90;;;;;;5038645;28;20170;-92
2023/08/09 12:01:58;;;;;;;4.70;1.00;;;20.30;99.90;;;;;;5020740;28;20266;-91
2023/08/09 12:04:26;;;;;;;6.00;0.80;;;20.10;99.90;;;;;;5020799;28;20179;-91
2023/08/09 12:07:09;;;;;;;3.35;0.82;;;19.80;99.70;;;;;;5020389;28;20206;-89
2023/08/09 12:09:40;;;;;;;4.10;0.80;;;19.60;99.90;;;;;;5020756;28;20273;-89
2023/08/09 12:12:16;;;;;;;2.90;0.88;;;19.60;99.90;;;;;;5020483;28;20179;-89
2023/08/09 12:14:49;;;;;;;2.08;0.75;;;19.90;99.90;;;;;;5038148;28;20174;-88
2023/08/09 12:17:26;;;;;;;3.33;0.68;;;20.30;99.90;;;;;;5020416;28;20612;-89
2023/08/09 12:19:57;;;;;;;2.03;0.80;;;20.60;99.90;;;;;;5020077;28;20316;-87
2023/08/09 12:22:25;;;;;;;3.90;0.80;;;20.60;97.70;;;;;;5037876;28;20587;-89
2023/08/09 12:24:51;;;;;;;3.05;0.70;;;20.40;99.90;;;;;;5020472;28;20235;-89
2023/08/09 12:27:29;;;;;;;3.05;0.90;;;20.10;99.70;;;;;;5020441;28;20259;-89
2023/08/09 12:29:55;;;;;;;2.10;0.60;;;20.00;99.90;;;;;;5037888;28;20528;-89
2023/08/09 12:32:21;;;;;;;4.68;0.80;;;20.10;99.80;;;;;;5020061;28;20175;-89
2023/08/09 12:34:49;;;;;;;2.17;0.77;;;20.30;99.90;;;;;;5020137;28;20273;-88
2023/08/09 12:37:21;;;;;;;2.13;0.65;;;20.60;99.90;;;;;;5037599;28;20416;-88
2023/08/09 12:39:48;;;;;;;1.33;0.65;;;20.80;99.70;;;;;;5037650;28;20292;-89
2023/08/09 12:42:14;;;;;;;2.22;0.95;;;20.90;99.90;;;;;;5035635;28;20214;-90
2023/08/09 12:44:39;;;;;;;5.15;0.95;;;20.80;99.50;;;;;;5012273;28;20634;-87
2023/08/09 12:47:06;;;;;;;3.50;0.90;;;20.70;99.90;;;;;;5019350;28;20222;-88
2023/08/09 12:49:32;;;;;;;4.63;1.02;;;20.80;97.00;;;;;;5037034;28;20178;-88
2023/08/09 12:51:58;;;;;;;4.32;0.98;;;20.80;98.80;;;;;;5037231;28;20250;-90
2023/08/09 12:54:24;;;;;;;1.48;0.70;;;20.70;98.00;;;;;;5019932;28;20286;-89